sensor_id;sensor_type;location;lat;lon;timestamp;P1;durP1;ratioP1;P2;durP2;ratioP2
59271;SDS011;45043;51.068;7.026;2023-03-23T00:02:27;3.77;;;2.17;;
59271;SDS011;45043;51.068;7.026;2023-03-23T00:05:29;3.57;;;2.43;;
59271;SDS011;45043;51.068;7.026;2023-03-23T00:08:31;4.43;;;2.60;;
59271;SDS011;45043;51.068;7.026;2023-03-23T00:11:33;2.47;;;2.20;;
59271;SDS011;45043;51.068;7.026;2023-03-23T00:14:34;3.57;;;2.23;;
59271;SDS011;45043;51.068;7.026;2023-03-23T00:17:41;2.80;;;2.20;;
59271;SDS011;45043;51.068;7.026;2023-03-23T00:20:43;2.23;;;2.03;;
59271;SDS011;45043;51.068;7.026;2023-03-23T00:23:44;6.13;;;2.40;;
59271;SDS011;45043;51.068;7.026;2023-03-23T00:26:45;2.37;;;2.10;;
59271;SDS011;45043;51.068;7.026;2023-03-23T00:29:48;3.37;;;2.40;;
59271;SDS011;45043;51.068;7.026;2023-03-23T00:32:54;3.53;;;2.43;;
59271;SDS011;45043;51.068;7.026;2023-03-23T00:35:57;4.30;;;2.30;;
59271;SDS011;45043;51.068;7.026;2023-03-23T00:38:57;2.40;;;2.20;;
59271;SDS011;45043;51.068;7.026;2023-03-23T00:41:59;3.17;;;2.17;;
59271;SDS011;45043;51.068;7.026;2023-03-23T00:45:03;3.43;;;2.40;;
59271;SDS011;45043;51.068;7.026;2023-03-23T00:48:11;2.20;;;2.00;;
59271;SDS011;45043;51.068;7.026;2023-03-23T00:51:14;3.50;;;2.10;;
59271;SDS011;45043;51.068;7.026;2023-03-23T00:54:15;2.87;;;2.03;;
59271;SDS011;45043;51.068;7.026;2023-03-23T00:57:15;2.93;;;1.80;;
59271;SDS011;45043;51.068;7.026;2023-03-23T01:00:17;4.13;;;2.37;;
59271;SDS011;45043;51.068;7.026;2023-03-23T01:03:19;2.20;;;2.00;;
59271;SDS011;45043;51.068;7.026;2023-03-23T01:06:19;2.80;;;1.80;;
59271;SDS011;45043;51.068;7.026;2023-03-23T01:09:21;2.63;;;2.00;;
59271;SDS011;45043;51.068;7.026;2023-03-23T01:12:22;2.30;;;1.93;;
59271;SDS011;45043;51.068;7.026;2023-03-23T01:15:24;1.80;;;1.70;;
59271;SDS011;45043;51.068;7.026;2023-03-23T01:18:25;2.23;;;2.00;;
59271;SDS011;45043;51.068;7.026;2023-03-23T01:21:25;2.97;;;1.97;;
59271;SDS011;45043;51.068;7.026;2023-03-23T01:24:26;2.97;;;2.10;;
59271;SDS011;45043;51.068;7.026;2023-03-23T01:27:27;2.87;;;2.00;;
59271;SDS011;45043;51.068;7.026;2023-03-23T01:30:27;2.20;;;2.00;;
59271;SDS011;45043;51.068;7.026;2023-03-23T01:33:28;2.93;;;2.17;;
59271;SDS011;45043;51.068;7.026;2023-03-23T01:36:29;2.30;;;2.10;;
59271;SDS011;45043;51.068;7.026;2023-03-23T01:39:35;3.83;;;2.20;;
59271;SDS011;45043;51.068;7.026;2023-03-23T01:42:37;2.27;;;1.90;;
59271;SDS011;45043;51.068;7.026;2023-03-23T01:45:41;2.53;;;2.07;;
59271;SDS011;45043;51.068;7.026;2023-03-23T01:48:42;4.87;;;2.00;;
59271;SDS011;45043;51.068;7.026;2023-03-23T01:51:44;3.27;;;2.37;;
59271;SDS011;45043;51.068;7.026;2023-03-23T01:54:48;3.37;;;2.30;;
59271;SDS011;45043;51.068;7.026;2023-03-23T01:57:49;3.53;;;2.20;;
59271;SDS011;45043;51.068;7.026;2023-03-23T02:00:52;4.13;;;2.40;;
59271;SDS011;45043;51.068;7.026;2023-03-23T02:03:56;3.03;;;2.27;;
59271;SDS011;45043;51.068;7.026;2023-03-23T02:06:58;3.07;;;2.20;;
59271;SDS011;45043;51.068;7.026;2023-03-23T02:10:00;3.13;;;2.40;;
59271;SDS011;45043;51.068;7.026;2023-03-23T02:13:05;2.97;;;2.30;;
59271;SDS011;45043;51.068;7.026;2023-03-23T02:26:25;2.63;;;2.43;;
59271;SDS011;45043;51.068;7.026;2023-03-23T02:29:56;3.43;;;2.53;;
59271;SDS011;45043;51.068;7.026;2023-03-23T02:36:29;3.77;;;2.50;;
59271;SDS011;45043;51.068;7.026;2023-03-23T02:42:34;3.00;;;2.40;;
59271;SDS011;45043;51.068;7.026;2023-03-23T02:45:38;3.47;;;2.70;;
59271;SDS011;45043;51.068;7.026;2023-03-23T02:48:41;2.67;;;2.47;;
59271;SDS011;45043;51.068;7.026;2023-03-23T02:51:44;3.53;;;2.77;;
59271;SDS011;45043;51.068;7.026;2023-03-23T02:54:48;2.83;;;2.30;;
59271;SDS011;45043;51.068;7.026;2023-03-23T02:57:54;3.07;;;2.40;;
59271;SDS011;45043;51.068;7.026;2023-03-23T03:00:55;3.17;;;2.53;;
59271;SDS011;45043;51.068;7.026;2023-03-23T03:03:57;3.63;;;2.53;;
59271;SDS011;45043;51.068;7.026;2023-03-23T03:07:07;2.70;;;2.30;;
59271;SDS011;45043;51.068;7.026;2023-03-23T03:10:10;2.27;;;2.07;;
59271;SDS011;45043;51.068;7.026;2023-03-23T03:13:29;2.37;;;2.17;;
59271;SDS011;45043;51.068;7.026;2023-03-23T03:16:43;3.37;;;2.50;;
59271;SDS011;45043;51.068;7.026;2023-03-23T03:19:50;2.53;;;2.13;;
59271;SDS011;45043;51.068;7.026;2023-03-23T03:22:55;3.23;;;2.47;;
59271;SDS011;45043;51.068;7.026;2023-03-23T03:25:59;2.27;;;2.07;;
59271;SDS011;45043;51.068;7.026;2023-03-23T03:29:26;2.17;;;1.97;;
59271;SDS011;45043;51.068;7.026;2023-03-23T03:32:34;2.00;;;1.90;;
59271;SDS011;45043;51.068;7.026;2023-03-23T03:35:39;2.87;;;2.00;;
59271;SDS011;45043;51.068;7.026;2023-03-23T03:38:42;2.67;;;2.43;;
59271;SDS011;45043;51.068;7.026;2023-03-23T03:41:44;2.30;;;2.10;;
59271;SDS011;45043;51.068;7.026;2023-03-23T03:44:45;2.70;;;2.00;;
59271;SDS011;45043;51.068;7.026;2023-03-23T03:47:45;2.27;;;2.03;;
59271;SDS011;45043;51.068;7.026;2023-03-23T03:50:46;2.40;;;2.00;;
59271;SDS011;45043;51.068;7.026;2023-03-23T03:53:47;2.00;;;1.80;;
59271;SDS011;45043;51.068;7.026;2023-03-23T03:56:47;2.17;;;1.97;;
59271;SDS011;45043;51.068;7.026;2023-03-23T04:00:07;2.10;;;1.90;;
59271;SDS011;45043;51.068;7.026;2023-03-23T04:03:15;2.63;;;2.30;;
59271;SDS011;45043;51.068;7.026;2023-03-23T04:06:48;2.10;;;1.90;;
59271;SDS011;45043;51.068;7.026;2023-03-23T04:09:50;2.20;;;2.00;;
59271;SDS011;45043;51.068;7.026;2023-03-23T04:12:53;2.50;;;2.10;;
59271;SDS011;45043;51.068;7.026;2023-03-23T04:16:27;2.90;;;2.40;;
59271;SDS011;45043;51.068;7.026;2023-03-23T04:19:30;2.60;;;1.97;;
59271;SDS011;45043;51.068;7.026;2023-03-23T04:22:34;1.67;;;1.57;;
59271;SDS011;45043;51.068;7.026;2023-03-23T04:25:35;2.27;;;2.00;;
59271;SDS011;45043;51.068;7.026;2023-03-23T04:28:38;4.37;;;2.00;;
59271;SDS011;45043;51.068;7.026;2023-03-23T04:31:59;2.10;;;1.90;;
59271;SDS011;45043;51.068;7.026;2023-03-23T04:35:12;2.70;;;1.90;;
59271;SDS011;45043;51.068;7.026;2023-03-23T04:38:23;2.83;;;1.70;;
59271;SDS011;45043;51.068;7.026;2023-03-23T04:41:29;2.77;;;2.30;;
59271;SDS011;45043;51.068;7.026;2023-03-23T04:44:49;2.20;;;2.00;;
59271;SDS011;45043;51.068;7.026;2023-03-23T04:47:58;2.13;;;1.93;;
59271;SDS011;45043;51.068;7.026;2023-03-23T04:51:08;3.23;;;2.40;;
59271;SDS011;45043;51.068;7.026;2023-03-23T04:54:10;3.03;;;2.20;;
59271;SDS011;45043;51.068;7.026;2023-03-23T04:57:13;2.40;;;2.20;;
59271;SDS011;45043;51.068;7.026;2023-03-23T05:00:22;2.30;;;2.13;;
59271;SDS011;45043;51.068;7.026;2023-03-23T05:03:26;2.43;;;1.90;;
59271;SDS011;45043;51.068;7.026;2023-03-23T05:06:29;2.50;;;2.30;;
59271;SDS011;45043;51.068;7.026;2023-03-23T05:09:35;3.10;;;2.00;;
59271;SDS011;45043;51.068;7.026;2023-03-23T05:12:37;3.10;;;2.10;;
59271;SDS011;45043;51.068;7.026;2023-03-23T05:15:41;3.10;;;2.20;;
59271;SDS011;45043;51.068;7.026;2023-03-23T05:18:42;3.10;;;2.20;;
59271;SDS011;45043;51.068;7.026;2023-03-23T05:21:45;2.20;;;2.00;;
59271;SDS011;45043;51.068;7.026;2023-03-23T05:24:46;4.27;;;2.20;;
59271;SDS011;45043;51.068;7.026;2023-03-23T05:27:47;2.83;;;2.37;;
59271;SDS011;45043;51.068;7.026;2023-03-23T05:31:15;3.57;;;2.13;;
59271;SDS011;45043;51.068;7.026;2023-03-23T05:34:16;2.40;;;2.20;;
59271;SDS011;45043;51.068;7.026;2023-03-23T05:37:22;2.37;;;2.17;;
59271;SDS011;45043;51.068;7.026;2023-03-23T05:40:29;3.60;;;2.20;;
59271;SDS011;45043;51.068;7.026;2023-03-23T05:43:35;5.60;;;2.33;;
59271;SDS011;45043;51.068;7.026;2023-03-23T05:46:52;5.43;;;2.20;;
59271;SDS011;45043;51.068;7.026;2023-03-23T05:49:53;3.37;;;2.50;;
59271;SDS011;45043;51.068;7.026;2023-03-23T05:52:56;2.50;;;2.10;;
59271;SDS011;45043;51.068;7.026;2023-03-23T05:55:59;3.27;;;2.10;;
59271;SDS011;45043;51.068;7.026;2023-03-23T05:59:27;4.53;;;2.27;;
59271;SDS011;45043;51.068;7.026;2023-03-23T06:02:30;3.50;;;2.40;;
59271;SDS011;45043;51.068;7.026;2023-03-23T06:05:31;4.17;;;2.17;;
59271;SDS011;45043;51.068;7.026;2023-03-23T06:08:32;2.73;;;2.30;;
59271;SDS011;45043;51.068;7.026;2023-03-23T06:11:33;2.50;;;2.30;;
59271;SDS011;45043;51.068;7.026;2023-03-23T06:14:56;2.50;;;2.30;;
59271;SDS011;45043;51.068;7.026;2023-03-23T06:18:07;2.97;;;2.10;;
59271;SDS011;45043;51.068;7.026;2023-03-23T06:21:20;2.87;;;2.17;;
59271;SDS011;45043;51.068;7.026;2023-03-23T06:24:46;2.77;;;2.30;;
59271;SDS011;45043;51.068;7.026;2023-03-23T06:27:50;4.20;;;2.33;;
59271;SDS011;45043;51.068;7.026;2023-03-23T06:30:52;4.20;;;2.67;;
59271;SDS011;45043;51.068;7.026;2023-03-23T06:33:53;2.50;;;2.30;;
59271;SDS011;45043;51.068;7.026;2023-03-23T06:37:13;3.57;;;2.30;;
59271;SDS011;45043;51.068;7.026;2023-03-23T06:40:24;2.63;;;2.43;;
59271;SDS011;45043;51.068;7.026;2023-03-23T06:43:28;5.27;;;2.27;;
59271;SDS011;45043;51.068;7.026;2023-03-23T06:46:49;3.07;;;2.60;;
59271;SDS011;45043;51.068;7.026;2023-03-23T06:49:53;3.27;;;2.50;;
59271;SDS011;45043;51.068;7.026;2023-03-23T06:52:59;3.90;;;2.63;;
59271;SDS011;45043;51.068;7.026;2023-03-23T06:56:03;3.80;;;2.50;;
59271;SDS011;45043;51.068;7.026;2023-03-23T06:59:05;3.50;;;2.37;;
59271;SDS011;45043;51.068;7.026;2023-03-23T07:02:08;3.43;;;2.30;;
59271;SDS011;45043;51.068;7.026;2023-03-23T07:05:12;4.23;;;2.50;;
59271;SDS011;45043;51.068;7.026;2023-03-23T07:08:13;3.83;;;2.20;;
59271;SDS011;45043;51.068;7.026;2023-03-23T07:11:24;2.83;;;2.50;;
59271;SDS011;45043;51.068;7.026;2023-03-23T07:14:25;3.23;;;2.20;;
59271;SDS011;45043;51.068;7.026;2023-03-23T07:17:26;4.07;;;2.27;;
59271;SDS011;45043;51.068;7.026;2023-03-23T07:20:48;3.00;;;2.47;;
59271;SDS011;45043;51.068;7.026;2023-03-23T07:23:51;3.53;;;2.30;;
59271;SDS011;45043;51.068;7.026;2023-03-23T07:27:05;3.27;;;2.30;;
59271;SDS011;45043;51.068;7.026;2023-03-23T07:30:07;3.90;;;2.40;;
59271;SDS011;45043;51.068;7.026;2023-03-23T07:33:08;4.20;;;2.30;;
59271;SDS011;45043;51.068;7.026;2023-03-23T07:36:10;3.20;;;2.60;;
59271;SDS011;45043;51.068;7.026;2023-03-23T07:39:11;3.07;;;2.13;;
59271;SDS011;45043;51.068;7.026;2023-03-23T07:42:16;3.77;;;2.23;;
59271;SDS011;45043;51.068;7.026;2023-03-23T07:45:23;6.57;;;2.30;;
59271;SDS011;45043;51.068;7.026;2023-03-23T07:48:24;3.20;;;2.10;;
59271;SDS011;45043;51.068;7.026;2023-03-23T07:51:26;3.00;;;2.10;;
59271;SDS011;45043;51.068;7.026;2023-03-23T07:54:28;4.13;;;2.17;;
59271;SDS011;45043;51.068;7.026;2023-03-23T07:57:38;2.20;;;2.00;;
59271;SDS011;45043;51.068;7.026;2023-03-23T08:00:39;4.67;;;2.13;;
59271;SDS011;45043;51.068;7.026;2023-03-23T08:03:42;3.70;;;2.00;;
59271;SDS011;45043;51.068;7.026;2023-03-23T08:07:08;2.70;;;1.50;;
59271;SDS011;45043;51.068;7.026;2023-03-23T08:10:30;3.67;;;1.97;;
59271;SDS011;45043;51.068;7.026;2023-03-23T08:13:42;5.63;;;2.10;;
59271;SDS011;45043;51.068;7.026;2023-03-23T08:17:02;4.87;;;1.97;;
59271;SDS011;45043;51.068;7.026;2023-03-23T08:20:06;3.50;;;2.00;;
59271;SDS011;45043;51.068;7.026;2023-03-23T08:23:31;4.23;;;1.80;;
59271;SDS011;45043;51.068;7.026;2023-03-23T08:26:53;4.03;;;2.10;;
59271;SDS011;45043;51.068;7.026;2023-03-23T08:30:14;3.40;;;1.70;;
59271;SDS011;45043;51.068;7.026;2023-03-23T08:33:29;4.53;;;2.20;;
59271;SDS011;45043;51.068;7.026;2023-03-23T08:36:54;5.27;;;2.20;;
59271;SDS011;45043;51.068;7.026;2023-03-23T08:40:19;5.07;;;2.00;;
59271;SDS011;45043;51.068;7.026;2023-03-23T08:43:30;4.30;;;2.73;;
59271;SDS011;45043;51.068;7.026;2023-03-23T08:46:50;5.37;;;2.77;;
59271;SDS011;45043;51.068;7.026;2023-03-23T08:50:14;5.23;;;2.40;;
59271;SDS011;45043;51.068;7.026;2023-03-23T08:53:18;4.93;;;2.03;;
59271;SDS011;45043;51.068;7.026;2023-03-23T08:56:20;3.53;;;1.80;;
59271;SDS011;45043;51.068;7.026;2023-03-23T08:59:48;3.53;;;2.07;;
59271;SDS011;45043;51.068;7.026;2023-03-23T09:02:53;5.03;;;2.60;;
59271;SDS011;45043;51.068;7.026;2023-03-23T09:06:04;5.33;;;2.13;;
59271;SDS011;45043;51.068;7.026;2023-03-23T09:09:12;5.77;;;2.30;;
59271;SDS011;45043;51.068;7.026;2023-03-23T09:12:12;6.10;;;2.70;;
59271;SDS011;45043;51.068;7.026;2023-03-23T09:15:15;5.17;;;2.30;;
59271;SDS011;45043;51.068;7.026;2023-03-23T09:18:18;4.93;;;2.00;;
59271;SDS011;45043;51.068;7.026;2023-03-23T09:21:18;3.10;;;1.70;;
59271;SDS011;45043;51.068;7.026;2023-03-23T09:24:19;6.63;;;2.23;;
59271;SDS011;45043;51.068;7.026;2023-03-23T09:27:20;6.00;;;2.10;;
59271;SDS011;45043;51.068;7.026;2023-03-23T09:30:20;6.27;;;2.20;;
59271;SDS011;45043;51.068;7.026;2023-03-23T09:33:21;5.40;;;2.33;;
59271;SDS011;45043;51.068;7.026;2023-03-23T09:36:21;5.53;;;2.30;;
59271;SDS011;45043;51.068;7.026;2023-03-23T09:39:22;5.70;;;2.40;;
59271;SDS011;45043;51.068;7.026;2023-03-23T09:42:30;5.77;;;2.40;;
59271;SDS011;45043;51.068;7.026;2023-03-23T09:45:36;3.97;;;2.23;;
59271;SDS011;45043;51.068;7.026;2023-03-23T09:52:00;5.70;;;2.47;;
59271;SDS011;45043;51.068;7.026;2023-03-23T09:55:14;3.90;;;1.90;;
59271;SDS011;45043;51.068;7.026;2023-03-23T09:58:18;4.20;;;2.10;;
59271;SDS011;45043;51.068;7.026;2023-03-23T10:01:26;4.87;;;1.93;;
59271;SDS011;45043;51.068;7.026;2023-03-23T10:04:47;3.13;;;1.93;;
59271;SDS011;45043;51.068;7.026;2023-03-23T10:07:50;4.87;;;1.80;;
59271;SDS011;45043;51.068;7.026;2023-03-23T10:14:44;6.20;;;2.10;;
59271;SDS011;45043;51.068;7.026;2023-03-23T10:18:10;5.73;;;2.20;;
59271;SDS011;45043;51.068;7.026;2023-03-23T10:21:17;8.07;;;2.00;;
59271;SDS011;45043;51.068;7.026;2023-03-23T10:28:11;3.60;;;1.90;;
59271;SDS011;45043;51.068;7.026;2023-03-23T10:31:29;5.70;;;2.03;;
59271;SDS011;45043;51.068;7.026;2023-03-23T10:34:39;5.73;;;2.20;;
59271;SDS011;45043;51.068;7.026;2023-03-23T10:37:45;5.40;;;2.10;;
59271;SDS011;45043;51.068;7.026;2023-03-23T10:40:53;4.33;;;2.00;;
59271;SDS011;45043;51.068;7.026;2023-03-23T10:43:58;5.23;;;1.80;;
59271;SDS011;45043;51.068;7.026;2023-03-23T10:47:00;4.53;;;2.30;;
59271;SDS011;45043;51.068;7.026;2023-03-23T10:50:04;5.03;;;1.90;;
59271;SDS011;45043;51.068;7.026;2023-03-23T10:53:16;6.80;;;1.87;;
59271;SDS011;45043;51.068;7.026;2023-03-23T10:56:25;5.20;;;2.00;;
59271;SDS011;45043;51.068;7.026;2023-03-23T10:59:28;4.65;;;1.85;;
59271;SDS011;45043;51.068;7.026;2023-03-23T11:02:31;3.33;;;1.60;;
59271;SDS011;45043;51.068;7.026;2023-03-23T11:05:36;3.33;;;1.37;;
59271;SDS011;45043;51.068;7.026;2023-03-23T11:08:46;4.60;;;2.40;;
59271;SDS011;45043;51.068;7.026;2023-03-23T11:11:52;4.93;;;2.23;;
59271;SDS011;45043;51.068;7.026;2023-03-23T11:15:02;4.03;;;1.97;;
59271;SDS011;45043;51.068;7.026;2023-03-23T11:18:10;5.87;;;2.63;;
59271;SDS011;45043;51.068;7.026;2023-03-23T11:21:13;5.37;;;2.30;;
59271;SDS011;45043;51.068;7.026;2023-03-23T11:24:14;4.37;;;2.27;;
59271;SDS011;45043;51.068;7.026;2023-03-23T11:27:15;3.97;;;2.00;;
59271;SDS011;45043;51.068;7.026;2023-03-23T11:30:20;3.67;;;1.83;;
59271;SDS011;45043;51.068;7.026;2023-03-23T11:33:24;3.57;;;1.90;;
59271;SDS011;45043;51.068;7.026;2023-03-23T11:36:32;2.80;;;2.00;;
59271;SDS011;45043;51.068;7.026;2023-03-23T11:39:53;4.90;;;1.83;;
59271;SDS011;45043;51.068;7.026;2023-03-23T11:46:09;3.13;;;1.70;;
59271;SDS011;45043;51.068;7.026;2023-03-23T11:50:00;6.83;;;1.87;;
59271;SDS011;45043;51.068;7.026;2023-03-23T11:56:15;2.93;;;2.00;;
59271;SDS011;45043;51.068;7.026;2023-03-23T11:59:31;3.40;;;2.03;;
59271;SDS011;45043;51.068;7.026;2023-03-23T12:12:16;4.57;;;3.00;;
59271;SDS011;45043;51.068;7.026;2023-03-23T12:15:32;6.27;;;3.83;;
59271;SDS011;45043;51.068;7.026;2023-03-23T12:18:56;4.57;;;3.17;;
59271;SDS011;45043;51.068;7.026;2023-03-23T12:28:31;5.37;;;4.50;;
59271;SDS011;45043;51.068;7.026;2023-03-23T12:32:38;4.67;;;4.03;;
59271;SDS011;45043;51.068;7.026;2023-03-23T12:35:12;4.83;;;3.93;;
59271;SDS011;45043;51.068;7.026;2023-03-23T12:38:35;5.73;;;4.10;;
59271;SDS011;45043;51.068;7.026;2023-03-23T12:52:23;6.30;;;4.60;;
59271;SDS011;45043;51.068;7.026;2023-03-23T12:58:34;6.20;;;3.83;;
59271;SDS011;45043;51.068;7.026;2023-03-23T13:01:43;3.77;;;2.60;;
59271;SDS011;45043;51.068;7.026;2023-03-23T13:04:48;3.73;;;3.17;;
59271;SDS011;45043;51.068;7.026;2023-03-23T13:08:04;4.93;;;3.30;;
59271;SDS011;45043;51.068;7.026;2023-03-23T13:11:14;5.50;;;3.90;;
59271;SDS011;45043;51.068;7.026;2023-03-23T13:18:08;5.10;;;3.60;;
59271;SDS011;45043;51.068;7.026;2023-03-23T13:21:30;5.03;;;3.87;;
59271;SDS011;45043;51.068;7.026;2023-03-23T13:24:33;3.97;;;3.27;;
59271;SDS011;45043;51.068;7.026;2023-03-23T13:27:37;5.80;;;3.07;;
59271;SDS011;45043;51.068;7.026;2023-03-23T13:30:37;4.47;;;3.07;;
59271;SDS011;45043;51.068;7.026;2023-03-23T13:33:38;3.77;;;2.40;;
59271;SDS011;45043;51.068;7.026;2023-03-23T13:36:40;3.10;;;1.77;;
59271;SDS011;45043;51.068;7.026;2023-03-23T13:42:54;2.50;;;1.70;;
59271;SDS011;45043;51.068;7.026;2023-03-23T13:46:06;4.63;;;2.00;;
59271;SDS011;45043;51.068;7.026;2023-03-23T13:52:15;2.33;;;1.50;;
59271;SDS011;45043;51.068;7.026;2023-03-23T13:58:25;4.17;;;2.10;;
59271;SDS011;45043;51.068;7.026;2023-03-23T14:01:31;4.77;;;1.70;;
59271;SDS011;45043;51.068;7.026;2023-03-23T14:04:35;1.97;;;1.43;;
59271;SDS011;45043;51.068;7.026;2023-03-23T14:14:30;1.77;;;1.17;;
59271;SDS011;45043;51.068;7.026;2023-03-23T14:17:40;2.90;;;1.03;;
59271;SDS011;45043;51.068;7.026;2023-03-23T14:20:45;2.60;;;1.10;;
59271;SDS011;45043;51.068;7.026;2023-03-23T14:23:47;2.43;;;1.20;;
59271;SDS011;45043;51.068;7.026;2023-03-23T14:26:47;5.00;;;1.40;;
59271;SDS011;45043;51.068;7.026;2023-03-23T14:29:58;4.00;;;1.57;;
59271;SDS011;45043;51.068;7.026;2023-03-23T14:33:04;2.50;;;1.50;;
59271;SDS011;45043;51.068;7.026;2023-03-23T14:36:07;3.27;;;1.70;;
59271;SDS011;45043;51.068;7.026;2023-03-23T14:42:15;1.73;;;1.30;;
59271;SDS011;45043;51.068;7.026;2023-03-23T14:45:27;4.50;;;1.80;;
59271;SDS011;45043;51.068;7.026;2023-03-23T14:48:27;2.17;;;1.60;;
59271;SDS011;45043;51.068;7.026;2023-03-23T14:51:29;3.73;;;1.90;;
59271;SDS011;45043;51.068;7.026;2023-03-23T14:54:31;4.00;;;1.57;;
59271;SDS011;45043;51.068;7.026;2023-03-23T14:57:31;2.93;;;1.83;;
59271;SDS011;45043;51.068;7.026;2023-03-23T15:00:33;4.80;;;1.80;;
59271;SDS011;45043;51.068;7.026;2023-03-23T15:03:40;2.83;;;1.70;;
59271;SDS011;45043;51.068;7.026;2023-03-23T15:06:45;6.67;;;1.83;;
59271;SDS011;45043;51.068;7.026;2023-03-23T15:09:49;4.13;;;1.70;;
59271;SDS011;45043;51.068;7.026;2023-03-23T15:12:51;4.70;;;2.00;;
59271;SDS011;45043;51.068;7.026;2023-03-23T15:16:11;5.43;;;1.80;;
59271;SDS011;45043;51.068;7.026;2023-03-23T15:19:20;8.30;;;2.50;;
59271;SDS011;45043;51.068;7.026;2023-03-23T15:22:25;2.90;;;2.10;;
59271;SDS011;45043;51.068;7.026;2023-03-23T15:25:29;5.03;;;2.20;;
59271;SDS011;45043;51.068;7.026;2023-03-23T15:28:32;3.23;;;2.00;;
59271;SDS011;45043;51.068;7.026;2023-03-23T15:31:40;4.30;;;2.10;;
59271;SDS011;45043;51.068;7.026;2023-03-23T15:34:44;4.57;;;2.70;;
59271;SDS011;45043;51.068;7.026;2023-03-23T15:37:47;4.00;;;3.60;;
59271;SDS011;45043;51.068;7.026;2023-03-23T15:40:51;8.43;;;3.70;;
59271;SDS011;45043;51.068;7.026;2023-03-23T15:43:57;7.17;;;3.17;;
59271;SDS011;45043;51.068;7.026;2023-03-23T15:47:18;7.10;;;3.17;;
59271;SDS011;45043;51.068;7.026;2023-03-23T15:56:39;7.77;;;4.63;;
59271;SDS011;45043;51.068;7.026;2023-03-23T15:59:40;5.17;;;3.60;;
59271;SDS011;45043;51.068;7.026;2023-03-23T16:02:40;4.93;;;3.70;;
59271;SDS011;45043;51.068;7.026;2023-03-23T16:05:42;5.17;;;3.93;;
59271;SDS011;45043;51.068;7.026;2023-03-23T16:08:43;4.40;;;3.53;;
59271;SDS011;45043;51.068;7.026;2023-03-23T16:11:43;5.23;;;3.90;;
59271;SDS011;45043;51.068;7.026;2023-03-23T16:14:45;5.97;;;3.97;;
59271;SDS011;45043;51.068;7.026;2023-03-23T16:17:45;4.83;;;2.87;;
59271;SDS011;45043;51.068;7.026;2023-03-23T16:20:49;4.23;;;2.03;;
59271;SDS011;45043;51.068;7.026;2023-03-23T16:23:50;4.20;;;2.27;;
59271;SDS011;45043;51.068;7.026;2023-03-23T16:26:50;5.17;;;2.40;;
59271;SDS011;45043;51.068;7.026;2023-03-23T16:29:50;6.13;;;2.40;;
59271;SDS011;45043;51.068;7.026;2023-03-23T16:32:51;4.13;;;2.50;;
59271;SDS011;45043;51.068;7.026;2023-03-23T16:35:52;7.13;;;2.40;;
59271;SDS011;45043;51.068;7.026;2023-03-23T16:38:53;4.23;;;2.70;;
59271;SDS011;45043;51.068;7.026;2023-03-23T16:41:53;5.37;;;2.43;;
59271;SDS011;45043;51.068;7.026;2023-03-23T16:44:57;4.70;;;2.50;;
59271;SDS011;45043;51.068;7.026;2023-03-23T16:47:57;7.83;;;2.57;;
59271;SDS011;45043;51.068;7.026;2023-03-23T16:51:00;4.43;;;2.50;;
59271;SDS011;45043;51.068;7.026;2023-03-23T16:54:01;5.37;;;2.17;;
59271;SDS011;45043;51.068;7.026;2023-03-23T16:57:01;4.53;;;2.17;;
59271;SDS011;45043;51.068;7.026;2023-03-23T17:00:03;5.30;;;2.40;;
59271;SDS011;45043;51.068;7.026;2023-03-23T17:03:05;5.07;;;2.43;;
59271;SDS011;45043;51.068;7.026;2023-03-23T17:06:07;4.33;;;2.47;;
59271;SDS011;45043;51.068;7.026;2023-03-23T17:09:08;3.80;;;2.33;;
59271;SDS011;45043;51.068;7.026;2023-03-23T17:12:08;5.47;;;2.53;;
59271;SDS011;45043;51.068;7.026;2023-03-23T17:15:10;5.33;;;2.23;;
59271;SDS011;45043;51.068;7.026;2023-03-23T17:18:11;4.07;;;2.17;;
59271;SDS011;45043;51.068;7.026;2023-03-23T17:21:12;4.33;;;2.50;;
59271;SDS011;45043;51.068;7.026;2023-03-23T17:24:12;9.00;;;2.80;;
59271;SDS011;45043;51.068;7.026;2023-03-23T17:27:15;5.93;;;2.70;;
59271;SDS011;45043;51.068;7.026;2023-03-23T17:30:17;6.00;;;2.67;;
59271;SDS011;45043;51.068;7.026;2023-03-23T17:33:18;6.80;;;2.70;;
59271;SDS011;45043;51.068;7.026;2023-03-23T17:36:18;5.37;;;2.83;;
59271;SDS011;45043;51.068;7.026;2023-03-23T17:39:19;9.37;;;3.13;;
59271;SDS011;45043;51.068;7.026;2023-03-23T17:42:20;5.40;;;2.80;;
59271;SDS011;45043;51.068;7.026;2023-03-23T17:45:21;7.90;;;2.90;;
59271;SDS011;45043;51.068;7.026;2023-03-23T17:48:22;5.80;;;2.53;;
59271;SDS011;45043;51.068;7.026;2023-03-23T17:51:22;5.77;;;2.60;;
59271;SDS011;45043;51.068;7.026;2023-03-23T17:54:23;5.47;;;2.40;;
59271;SDS011;45043;51.068;7.026;2023-03-23T17:57:25;7.37;;;2.47;;
59271;SDS011;45043;51.068;7.026;2023-03-23T18:00:25;4.80;;;2.33;;
59271;SDS011;45043;51.068;7.026;2023-03-23T18:03:26;4.23;;;2.23;;
59271;SDS011;45043;51.068;7.026;2023-03-23T18:06:27;4.43;;;2.07;;
59271;SDS011;45043;51.068;7.026;2023-03-23T18:09:31;4.43;;;2.17;;
59271;SDS011;45043;51.068;7.026;2023-03-23T18:12:32;7.83;;;2.50;;
59271;SDS011;45043;51.068;7.026;2023-03-23T18:15:32;4.13;;;2.20;;
59271;SDS011;45043;51.068;7.026;2023-03-23T18:18:33;5.10;;;2.40;;
59271;SDS011;45043;51.068;7.026;2023-03-23T18:21:34;3.67;;;2.20;;
59271;SDS011;45043;51.068;7.026;2023-03-23T18:24:35;5.03;;;2.30;;
59271;SDS011;45043;51.068;7.026;2023-03-23T18:27:35;4.27;;;2.20;;
59271;SDS011;45043;51.068;7.026;2023-03-23T18:30:35;4.87;;;2.20;;
59271;SDS011;45043;51.068;7.026;2023-03-23T18:33:36;4.27;;;2.40;;
59271;SDS011;45043;51.068;7.026;2023-03-23T18:36:37;4.00;;;2.37;;
59271;SDS011;45043;51.068;7.026;2023-03-23T18:39:37;5.27;;;2.60;;
59271;SDS011;45043;51.068;7.026;2023-03-23T18:42:39;4.77;;;2.70;;
59271;SDS011;45043;51.068;7.026;2023-03-23T18:45:41;7.00;;;2.63;;
59271;SDS011;45043;51.068;7.026;2023-03-23T18:48:41;6.17;;;2.60;;
59271;SDS011;45043;51.068;7.026;2023-03-23T18:51:42;9.67;;;3.00;;
59271;SDS011;45043;51.068;7.026;2023-03-23T18:54:42;5.50;;;2.93;;
59271;SDS011;45043;51.068;7.026;2023-03-23T18:57:44;5.17;;;3.20;;
59271;SDS011;45043;51.068;7.026;2023-03-23T19:00:45;5.30;;;2.93;;
59271;SDS011;45043;51.068;7.026;2023-03-23T19:03:46;8.90;;;2.90;;
59271;SDS011;45043;51.068;7.026;2023-03-23T19:06:47;6.07;;;2.70;;
59271;SDS011;45043;51.068;7.026;2023-03-23T19:09:48;6.50;;;2.70;;
59271;SDS011;45043;51.068;7.026;2023-03-23T19:12:49;5.63;;;2.47;;
59271;SDS011;45043;51.068;7.026;2023-03-23T19:15:50;4.83;;;2.70;;
59271;SDS011;45043;51.068;7.026;2023-03-23T19:18:51;7.57;;;2.80;;
59271;SDS011;45043;51.068;7.026;2023-03-23T19:21:55;5.40;;;2.53;;
59271;SDS011;45043;51.068;7.026;2023-03-23T19:24:55;4.43;;;2.57;;
59271;SDS011;45043;51.068;7.026;2023-03-23T19:27:56;7.73;;;2.93;;
59271;SDS011;45043;51.068;7.026;2023-03-23T19:30:56;3.27;;;2.13;;
59271;SDS011;45043;51.068;7.026;2023-03-23T19:33:58;5.07;;;2.70;;
59271;SDS011;45043;51.068;7.026;2023-03-23T19:36:58;6.13;;;2.53;;
59271;SDS011;45043;51.068;7.026;2023-03-23T19:39:59;4.67;;;2.40;;
59271;SDS011;45043;51.068;7.026;2023-03-23T19:42:59;3.97;;;2.13;;
59271;SDS011;45043;51.068;7.026;2023-03-23T19:46:00;4.43;;;2.40;;
59271;SDS011;45043;51.068;7.026;2023-03-23T19:49:00;5.80;;;2.40;;
59271;SDS011;45043;51.068;7.026;2023-03-23T19:52:01;6.13;;;2.53;;
59271;SDS011;45043;51.068;7.026;2023-03-23T19:55:01;3.27;;;2.30;;
59271;SDS011;45043;51.068;7.026;2023-03-23T19:58:02;4.70;;;2.13;;
59271;SDS011;45043;51.068;7.026;2023-03-23T20:01:03;5.57;;;2.67;;
59271;SDS011;45043;51.068;7.026;2023-03-23T20:04:04;4.70;;;2.37;;
59271;SDS011;45043;51.068;7.026;2023-03-23T20:07:06;4.33;;;2.00;;
59271;SDS011;45043;51.068;7.026;2023-03-23T20:10:07;5.13;;;2.47;;
59271;SDS011;45043;51.068;7.026;2023-03-23T20:13:09;3.17;;;2.07;;